createdAt,value
2023-05-15T00:00:02.004Z,101267.38
2023-05-15T00:02:29.832Z,101262.84
2023-05-15T00:04:56.728Z,101263.63
2023-05-15T00:07:23.751Z,101260.75
2023-05-15T00:09:50.582Z,101258.28
2023-05-15T00:12:17.453Z,101259.94
2023-05-15T00:14:44.441Z,101254.56
2023-05-15T00:17:12.620Z,101258.28
2023-05-15T00:19:39.798Z,101251.31
2023-05-15T00:22:06.749Z,101248.88
2023-05-15T00:24:34.949Z,101247.22
2023-05-15T00:27:02.448Z,101245.59
2023-05-15T00:29:29.263Z,101246.88
2023-05-15T00:31:56.342Z,101244.69
2023-05-15T00:34:25.598Z,101244.09
2023-05-15T00:36:52.471Z,101246.06
2023-05-15T00:39:19.310Z,101233.59
2023-05-15T00:41:49.728Z,101237.75
2023-05-15T00:44:19.935Z,101242.72
2023-05-15T00:46:48.569Z,101234.94
2023-05-15T00:49:18.358Z,101229.59
2023-05-15T00:51:46.547Z,101227.16
2023-05-15T00:54:13.519Z,101227.94
2023-05-15T00:56:43.480Z,101226.34
2023-05-15T00:59:11.184Z,101231.69
2023-05-15T01:01:38.114Z,101226.78
2023-05-15T01:04:05.484Z,101224.13
2023-05-15T01:06:32.734Z,101223.09
2023-05-15T01:09:03.818Z,101229.47
2023-05-15T01:11:36.110Z,101223.53
2023-05-15T01:14:05.576Z,101224.81
2023-05-15T01:16:32.802Z,101214.22
2023-05-15T01:18:59.913Z,101222.56
2023-05-15T01:22:24.327Z,101218.31
2023-05-15T01:25:37.862Z,101223.19
2023-05-15T01:28:13.188Z,101217.00
2023-05-15T01:30:44.734Z,101219.25
2023-05-15T01:33:20.928Z,101222.94
2023-05-15T01:35:59.057Z,101222.94
2023-05-15T01:38:34.746Z,101225.63
2023-05-15T01:41:10.417Z,101217.69
2023-05-15T01:43:45.109Z,101217.19
2023-05-15T01:46:17.076Z,101219.75
2023-05-15T01:48:45.915Z,101217.28
2023-05-15T01:51:16.327Z,101216.47
2023-05-15T01:53:45.819Z,101210.66
2023-05-15T01:56:15.235Z,101209.41
2023-05-15T01:58:44.567Z,101211.03
2023-05-15T02:01:13.410Z,101211.25
2023-05-15T02:03:42.186Z,101209.16
2023-05-15T02:06:09.832Z,101207.09
2023-05-15T02:08:37.835Z,101209.78
2023-05-15T02:11:05.671Z,101209.97
2023-05-15T02:13:34.692Z,101209.16
2023-05-15T02:16:03.191Z,101205.69
2023-05-15T02:18:30.240Z,101200.56
2023-05-15T02:20:57.162Z,101204.72
2023-05-15T02:23:24.014Z,101200.28
2023-05-15T02:26:26.414Z,101204.94
2023-05-15T02:29:09.014Z,101194.94
2023-05-15T02:31:48.519Z,101190.28
2023-05-15T02:34:26.565Z,101191.09
2023-05-15T02:37:00.294Z,101191.69
2023-05-15T02:39:29.067Z,101189.38
2023-05-15T02:41:59.599Z,101181.72
2023-05-15T02:44:27.853Z,101180.69
2023-05-15T02:46:57.122Z,101178.59
2023-05-15T02:49:24.608Z,101182.75
2023-05-15T02:51:51.579Z,101175.06
2023-05-15T02:54:19.454Z,101171.66
2023-05-15T02:56:46.360Z,101178.94
2023-05-15T02:59:18.581Z,101164.63
2023-05-15T03:01:46.728Z,101166.69
2023-05-15T03:04:15.476Z,101166.09
2023-05-15T03:06:42.469Z,101174.56
2023-05-15T03:09:09.440Z,101162.47
2023-05-15T03:11:36.309Z,101165.56
2023-05-15T03:14:03.340Z,101157.44
2023-05-15T03:16:30.303Z,101152.97
2023-05-15T03:18:57.216Z,101156.09
2023-05-15T03:21:25.431Z,101160.47
2023-05-15T03:23:52.295Z,101150.47
2023-05-15T03:26:19.176Z,101151.94
2023-05-15T03:28:46.021Z,101153.16
2023-05-15T03:31:14.166Z,101158.97
2023-05-15T03:33:41.248Z,101161.00
2023-05-15T03:36:08.523Z,101151.16
2023-05-15T03:38:36.992Z,101155.47
2023-05-15T03:41:03.854Z,101147.03
2023-05-15T03:43:30.685Z,101148.59
2023-05-15T03:45:58.871Z,101146.06
2023-05-15T03:48:25.724Z,101150.53
2023-05-15T03:50:52.885Z,101142.28
2023-05-15T03:53:19.886Z,101152.75
2023-05-15T03:55:48.175Z,101141.84
2023-05-15T03:58:15.160Z,101140.81
2023-05-15T04:00:42.204Z,101145.56
2023-05-15T04:03:09.281Z,101136.94
2023-05-15T04:05:36.278Z,101145.78
2023-05-15T04:08:03.260Z,101147.19
2023-05-15T04:10:31.942Z,101150.22
2023-05-15T04:13:00.149Z,101161.13
2023-05-15T04:15:28.619Z,101158.31
2023-05-15T04:17:55.877Z,101156.56
2023-05-15T04:20:24.800Z,101160.09
2023-05-15T04:22:53.211Z,101157.28
2023-05-15T04:25:20.504Z,101171.50
2023-05-15T04:27:47.656Z,101159.00
2023-05-15T04:30:16.124Z,101154.13
2023-05-15T04:32:43.303Z,101151.06
2023-05-15T04:35:12.558Z,101165.91
2023-05-15T04:37:41.368Z,101158.75
2023-05-15T04:40:09.945Z,101158.16
2023-05-15T04:42:39.194Z,101158.81
2023-05-15T04:45:09.063Z,101151.47
2023-05-15T04:47:37.886Z,101162.59
2023-05-15T04:50:06.626Z,101162.22
2023-05-15T04:52:33.606Z,101164.28
2023-05-15T04:55:00.738Z,101163.06
2023-05-15T04:57:27.970Z,101163.31
2023-05-15T04:59:54.866Z,101160.22
2023-05-15T05:02:23.333Z,101160.22
2023-05-15T05:04:51.661Z,101155.66
2023-05-15T05:07:18.832Z,101161.41
2023-05-15T05:09:45.787Z,101162.59
2023-05-15T05:12:12.942Z,101169.94
2023-05-15T05:14:41.936Z,101157.22
2023-05-15T05:17:09.136Z,101156.75
2023-05-15T05:19:36.002Z,101163.50
2023-05-15T05:22:05.320Z,101160.41
2023-05-15T05:24:32.583Z,101152.16
2023-05-15T05:27:00.162Z,101164.66
2023-05-15T05:29:27.159Z,101158.06
2023-05-15T05:31:54.197Z,101156.34
2023-05-15T05:34:21.284Z,101159.75
2023-05-15T05:36:48.719Z,101170.56
2023-05-15T05:39:17.391Z,101161.13
2023-05-15T05:41:44.680Z,101168.53
2023-05-15T05:44:11.699Z,101165.25
2023-05-15T05:46:38.682Z,101164.03
2023-05-15T05:49:05.973Z,101168.81
2023-05-15T05:51:34.554Z,101169.66
2023-05-15T05:54:01.505Z,101170.38
2023-05-15T05:56:29.941Z,101169.00
2023-05-15T05:58:57.037Z,101176.47
2023-05-15T06:01:24.173Z,101168.91
2023-05-15T06:03:51.851Z,101157.44
2023-05-15T06:06:19.960Z,101162.19
2023-05-15T06:08:46.784Z,101163.72
2023-05-15T06:11:13.651Z,101159.06
2023-05-15T06:13:41.980Z,101152.69
2023-05-15T06:16:32.488Z,101157.44
2023-05-15T06:18:59.759Z,101157.44
2023-05-15T06:21:31.422Z,101153.53
2023-05-15T06:23:59.339Z,101154.91
2023-05-15T06:26:30.034Z,101161.44
2023-05-15T06:28:58.614Z,101161.53
2023-05-15T06:31:26.385Z,101165.50
2023-05-15T06:34:08.173Z,101172.56
2023-05-15T06:37:08.553Z,101164.78
2023-05-15T06:39:36.492Z,101168.84
2023-05-15T06:42:03.788Z,101173.28
2023-05-15T06:44:32.089Z,101169.41
2023-05-15T06:46:59.702Z,101167.78
2023-05-15T06:49:27.747Z,101172.75
2023-05-15T06:51:55.138Z,101173.94
2023-05-15T06:54:21.991Z,101172.41
2023-05-15T06:56:48.864Z,101159.34
2023-05-15T06:59:15.725Z,101160.75
2023-05-15T07:01:44.193Z,101159.22
2023-05-15T07:04:13.494Z,101155.03
2023-05-15T07:06:40.413Z,101152.44
2023-05-15T07:09:07.472Z,101154.97
2023-05-15T07:11:37.260Z,101154.25
2023-05-15T07:14:04.350Z,101147.94
2023-05-15T07:16:31.241Z,101150.16
2023-05-15T07:19:00.625Z,101148.16
2023-05-15T07:21:27.562Z,101153.81
2023-05-15T07:23:54.433Z,101150.97
2023-05-15T07:26:32.459Z,101152.47
2023-05-15T07:29:01.479Z,101150.78
2023-05-15T07:31:28.440Z,101145.25
2023-05-15T07:33:55.471Z,101154.44
2023-05-15T07:36:23.712Z,101150.47
2023-05-15T07:38:50.557Z,101148.84
2023-05-15T07:41:17.414Z,101144.63
2023-05-15T07:43:44.312Z,101143.34
2023-05-15T07:46:11.429Z,101139.44
2023-05-15T07:48:38.363Z,101148.22
2023-05-15T07:51:05.503Z,101143.50
2023-05-15T07:53:33.695Z,101145.41
2023-05-15T07:56:00.676Z,101146.22
2023-05-15T07:58:28.555Z,101139.34
2023-05-15T08:00:56.048Z,101139.75
2023-05-15T08:03:23.254Z,101138.81
2023-05-15T08:05:50.331Z,101144.13
2023-05-15T08:08:17.188Z,101146.88
2023-05-15T08:10:45.773Z,101141.19
2023-05-15T08:13:12.754Z,101141.53
2023-05-15T08:15:39.688Z,101130.31
2023-05-15T08:18:10.007Z,101134.53
2023-05-15T08:20:37.594Z,101126.81
2023-05-15T08:23:04.535Z,101126.31
2023-05-15T08:25:31.425Z,101126.84
2023-05-15T08:27:59.613Z,101125.53
2023-05-15T08:30:26.639Z,101121.72
2023-05-15T08:32:53.824Z,101114.75
2023-05-15T08:35:20.764Z,101115.00
2023-05-15T08:37:47.767Z,101118.88
2023-05-15T08:40:15.255Z,101121.97
2023-05-15T08:42:45.788Z,101114.72
2023-05-15T08:45:14.788Z,101120.28
2023-05-15T08:47:43.311Z,101121.50
2023-05-15T08:50:13.980Z,101112.94
2023-05-15T08:52:42.830Z,101107.16
2023-05-15T08:55:11.290Z,101106.50
2023-05-15T08:57:39.885Z,101099.50
2023-05-15T09:00:09.249Z,101090.13
2023-05-15T09:02:39.498Z,101106.63
2023-05-15T09:05:08.558Z,101103.41
2023-05-15T09:07:38.591Z,101090.31
2023-05-15T09:10:08.226Z,101093.81
2023-05-15T09:12:41.769Z,101085.91
2023-05-15T09:15:10.907Z,101089.16
2023-05-15T09:17:39.897Z,101096.16
2023-05-15T09:20:24.037Z,101092.94
2023-05-15T09:22:50.875Z,101094.34
2023-05-15T09:25:34.434Z,101091.25
2023-05-15T09:28:01.650Z,101090.88
2023-05-15T09:30:30.909Z,101088.91
2023-05-15T09:33:03.411Z,101087.41
2023-05-15T09:35:35.332Z,101093.63
2023-05-15T09:38:03.994Z,101094.31
2023-05-15T09:40:32.074Z,101090.94
2023-05-15T09:42:59.576Z,101091.50
2023-05-15T09:45:29.738Z,101082.16
2023-05-15T09:48:04.347Z,101077.78
2023-05-15T09:50:36.494Z,101072.50
2023-05-15T09:53:04.510Z,101078.78
2023-05-15T09:55:36.117Z,101076.75
2023-05-15T09:58:08.094Z,101081.53
2023-05-15T10:00:48.485Z,101081.63
2023-05-15T10:03:22.387Z,101078.16
2023-05-15T10:05:58.902Z,101076.13
2023-05-15T10:08:30.154Z,101065.66
2023-05-15T10:11:03.465Z,101074.84
2023-05-15T10:13:34.824Z,101073.53
2023-05-15T10:16:05.207Z,101079.94
2023-05-15T10:18:38.301Z,101073.81
2023-05-15T10:21:08.857Z,101075.53
2023-05-15T10:23:37.562Z,101084.56
2023-05-15T10:26:14.129Z,101080.63
2023-05-15T10:28:44.759Z,101076.19
2023-05-15T10:31:13.451Z,101078.63
2023-05-15T10:33:42.700Z,101080.81
2023-05-15T10:36:11.036Z,101079.28
2023-05-15T10:38:39.949Z,101076.31
2023-05-15T10:43:44.019Z,101075.13
2023-05-15T10:46:11.779Z,101074.44
2023-05-15T10:48:41.621Z,101076.59
2023-05-15T10:51:16.070Z,101073.66
2023-05-15T10:53:44.757Z,101063.13
2023-05-15T10:56:17.016Z,101065.91
2023-05-15T10:58:48.763Z,101057.66
2023-05-15T11:01:27.907Z,101065.88
2023-05-15T11:04:14.709Z,101059.34
2023-05-15T11:06:43.965Z,101062.81
2023-05-15T11:09:39.610Z,101062.84
2023-05-15T11:12:09.490Z,101053.25
2023-05-15T11:14:39.800Z,101059.13
2023-05-15T11:17:09.336Z,101053.00
2023-05-15T11:19:58.715Z,101058.44
2023-05-15T11:22:35.940Z,101056.47
2023-05-15T11:25:08.678Z,101065.00
2023-05-15T11:27:40.263Z,101052.78
2023-05-15T11:30:14.754Z,101046.19
2023-05-15T11:32:56.366Z,101049.69
2023-05-15T11:35:29.287Z,101043.50
2023-05-15T11:37:58.837Z,101051.00
2023-05-15T11:40:28.765Z,101042.34
2023-05-15T11:43:08.096Z,101039.94
2023-05-15T11:45:37.277Z,101036.75
2023-05-15T11:48:08.027Z,101038.31
2023-05-15T11:50:36.393Z,101030.66
2023-05-15T11:53:06.184Z,101030.06
2023-05-15T11:55:35.568Z,101030.84
2023-05-15T11:58:04.300Z,101028.03
2023-05-15T12:00:31.761Z,101026.03
2023-05-15T12:02:58.832Z,101018.09
2023-05-15T12:05:25.854Z,101024.84
2023-05-15T12:07:54.319Z,101021.88
2023-05-15T12:10:21.334Z,101023.13
2023-05-15T12:12:49.837Z,101017.31
2023-05-15T12:15:17.689Z,101020.25
2023-05-15T12:17:46.350Z,101009.94
2023-05-15T12:20:18.446Z,101010.66
2023-05-15T12:22:45.719Z,101018.38
2023-05-15T12:25:16.076Z,101017.56
2023-05-15T12:27:43.581Z,101012.31
2023-05-15T12:30:13.601Z,101016.97
2023-05-15T12:32:42.322Z,101014.88
2023-05-15T12:35:12.150Z,101009.38
2023-05-15T12:37:39.857Z,101005.19
2023-05-15T12:40:11.911Z,101015.16
2023-05-15T12:42:42.430Z,101011.28
2023-05-15T12:45:15.214Z,101014.28
2023-05-15T12:47:43.380Z,101008.78
2023-05-15T12:50:15.977Z,101014.84
2023-05-15T12:52:53.463Z,101002.81
2023-05-15T12:55:25.351Z,101005.91
2023-05-15T12:57:56.240Z,101004.41
2023-05-15T13:00:23.397Z,101008.16
2023-05-15T13:02:55.460Z,101007.22
2023-05-15T13:05:23.928Z,101008.56
2023-05-15T13:07:52.254Z,101014.56
2023-05-15T13:10:23.102Z,101007.91
2023-05-15T13:12:53.371Z,101013.59
2023-05-15T13:15:29.041Z,101014.88
2023-05-15T13:18:00.358Z,101016.78
2023-05-15T13:20:29.006Z,101014.88
2023-05-15T13:22:56.170Z,101018.88
2023-05-15T13:25:23.145Z,101020.03
2023-05-15T13:27:50.752Z,101018.53
2023-05-15T13:30:19.773Z,101013.34
2023-05-15T13:32:47.065Z,101010.97
2023-05-15T13:35:14.271Z,101007.50
2023-05-15T13:37:41.374Z,101007.00
2023-05-15T13:40:10.690Z,101002.53
2023-05-15T13:42:37.899Z,101010.22
2023-05-15T13:45:07.200Z,101005.63
2023-05-15T13:47:35.786Z,101014.13
2023-05-15T13:50:03.197Z,101005.38
2023-05-15T13:52:30.562Z,101012.47
2023-05-15T13:54:57.475Z,101012.75
2023-05-15T13:57:24.513Z,101008.88
2023-05-15T13:59:51.443Z,101013.34
2023-05-15T14:02:18.479Z,101010.22
2023-05-15T14:04:47.241Z,101012.88
2023-05-15T14:07:14.231Z,101015.44
2023-05-15T14:09:41.155Z,101014.72
2023-05-15T14:12:09.697Z,101023.91
2023-05-15T14:14:36.897Z,101022.78
2023-05-15T14:17:04.319Z,101010.78
2023-05-15T14:19:31.471Z,101003.03
2023-05-15T14:21:59.774Z,101009.34
2023-05-15T14:24:26.705Z,101012.97
2023-05-15T14:26:53.606Z,101019.69
2023-05-15T14:29:20.495Z,101017.22
2023-05-15T14:31:47.430Z,101020.63
2023-05-15T14:34:14.746Z,101012.22
2023-05-15T14:36:41.651Z,101022.19
2023-05-15T14:39:09.835Z,101017.03
2023-05-15T14:41:36.796Z,101024.81
2023-05-15T14:44:03.949Z,101014.94
2023-05-15T14:46:31.000Z,101024.69
2023-05-15T14:48:57.927Z,101021.31
2023-05-15T14:51:24.850Z,101021.31
2023-05-15T14:53:51.813Z,101024.78
2023-05-15T14:56:20.080Z,101023.31
2023-05-15T14:58:47.327Z,101023.16
2023-05-15T15:01:14.240Z,101025.97
2023-05-15T15:03:42.604Z,101037.63
2023-05-15T15:06:09.707Z,101029.44
2023-05-15T15:08:36.769Z,101038.34
2023-05-15T15:11:03.808Z,101043.34
2023-05-15T15:13:32.205Z,101051.38
2023-05-15T15:15:59.164Z,101056.72
2023-05-15T15:18:26.258Z,101064.97
2023-05-15T15:20:53.197Z,101060.91
2023-05-15T15:23:20.366Z,101061.22
2023-05-15T15:25:47.320Z,101057.47
2023-05-15T15:28:14.247Z,101059.06
2023-05-15T15:30:42.464Z,101054.38
2023-05-15T15:33:09.475Z,101055.09
2023-05-15T15:35:36.416Z,101058.78
2023-05-15T15:38:03.600Z,101057.19
2023-05-15T15:40:30.720Z,101057.72
2023-05-15T15:42:57.774Z,101056.50
2023-05-15T15:45:24.990Z,101061.19
2023-05-15T15:47:53.306Z,101057.31
2023-05-15T15:50:20.237Z,101055.66
2023-05-15T15:52:47.077Z,101056.78
2023-05-15T15:55:13.973Z,101075.13
2023-05-15T15:57:40.830Z,101064.22
2023-05-15T16:00:09.521Z,101068.91
2023-05-15T16:02:36.711Z,101064.88
2023-05-15T16:05:07.117Z,101063.09
2023-05-15T16:07:34.310Z,101068.09
2023-05-15T16:10:11.964Z,101077.63
2023-05-15T16:12:44.916Z,101070.03
2023-05-15T16:15:22.336Z,101079.22
2023-05-15T16:17:53.237Z,101084.41
2023-05-15T16:20:22.618Z,101074.94
2023-05-15T16:22:50.001Z,101078.19
2023-05-15T16:25:17.049Z,101068.97
2023-05-15T16:27:43.996Z,101076.00
2023-05-15T16:30:14.648Z,101092.00
2023-05-15T16:32:41.571Z,101090.16
2023-05-15T16:35:09.314Z,101093.19
2023-05-15T16:37:37.631Z,101095.34
2023-05-15T16:40:06.098Z,101094.47
2023-05-15T16:42:36.576Z,101109.03
2023-05-15T16:45:04.771Z,101104.13
2023-05-15T16:47:31.699Z,101112.16
2023-05-15T16:49:58.745Z,101105.09
2023-05-15T16:52:25.728Z,101115.81
2023-05-15T16:54:54.175Z,101113.03
2023-05-15T16:57:21.062Z,101120.44
2023-05-15T16:59:47.985Z,101119.22
2023-05-15T17:02:15.009Z,101129.53
2023-05-15T17:04:41.946Z,101130.09
2023-05-15T17:07:09.196Z,101139.44
2023-05-15T17:09:38.310Z,101130.03
2023-05-15T17:12:07.512Z,101137.91
2023-05-15T17:14:34.525Z,101144.72
2023-05-15T17:17:01.690Z,101149.22
2023-05-15T17:19:28.606Z,101154.72
2023-05-15T17:21:55.472Z,101158.06
2023-05-15T17:24:22.328Z,101169.00
2023-05-15T17:26:49.154Z,101168.63
2023-05-15T17:29:17.393Z,101179.56
2023-05-15T17:31:44.294Z,101177.16
2023-05-15T17:34:11.553Z,101183.34
2023-05-15T17:36:39.070Z,101181.97
2023-05-15T17:39:05.967Z,101188.66
2023-05-15T17:41:32.847Z,101203.34
2023-05-15T17:43:59.714Z,101197.16
2023-05-15T17:46:28.042Z,101207.75
2023-05-15T17:48:54.983Z,101211.47
2023-05-15T17:51:21.894Z,101218.47
2023-05-15T17:53:49.196Z,101212.53
2023-05-15T17:56:16.069Z,101208.09
2023-05-15T17:58:42.994Z,101211.25
2023-05-15T18:01:09.921Z,101214.84
2023-05-15T18:03:39.667Z,101219.13
2023-05-15T18:06:08.578Z,101223.16
2023-05-15T18:08:35.402Z,101217.69
2023-05-15T18:11:08.455Z,101233.41
2023-05-15T18:13:38.209Z,101230.81
2023-05-15T18:16:06.123Z,101235.66
2023-05-15T18:18:35.135Z,101234.38
2023-05-15T18:21:03.655Z,101233.19
2023-05-15T18:23:30.580Z,101232.00
2023-05-15T18:25:57.476Z,101237.00
2023-05-15T18:28:24.348Z,101230.69
2023-05-15T18:30:51.242Z,101235.91
2023-05-15T18:33:18.282Z,101233.69
2023-05-15T18:35:45.246Z,101241.56
2023-05-15T18:38:13.419Z,101250.44
2023-05-15T18:40:40.372Z,101253.44
2023-05-15T18:43:07.400Z,101245.28
2023-05-15T18:45:34.346Z,101251.75
2023-05-15T18:48:01.239Z,101254.94
2023-05-15T18:50:28.266Z,101267.31
2023-05-15T18:52:55.196Z,101270.66
2023-05-15T18:55:24.003Z,101264.97
2023-05-15T18:57:51.617Z,101280.16
2023-05-15T19:00:34.062Z,101278.06
2023-05-15T19:03:05.465Z,101276.47
2023-05-15T19:05:33.771Z,101275.25
2023-05-15T19:08:01.039Z,101284.59
2023-05-15T19:10:30.313Z,101281.16
2023-05-15T19:12:57.696Z,101287.59
2023-05-15T19:15:25.411Z,101297.75
2023-05-15T19:17:52.489Z,101295.31
2023-05-15T19:20:19.843Z,101301.53
2023-05-15T19:22:46.782Z,101299.53
2023-05-15T19:25:13.721Z,101307.72
2023-05-15T19:27:41.936Z,101311.44
2023-05-15T19:30:10.257Z,101305.50
2023-05-15T19:32:37.690Z,101306.97
2023-05-15T19:35:05.894Z,101305.75
2023-05-15T19:37:32.766Z,101308.25
2023-05-15T19:39:59.778Z,101311.16
2023-05-15T19:42:26.800Z,101305.81
2023-05-15T19:44:55.011Z,101307.25
2023-05-15T19:47:21.992Z,101311.53
2023-05-15T19:49:48.951Z,101309.44
2023-05-15T19:52:15.937Z,101313.19
2023-05-15T19:54:42.870Z,101318.09
2023-05-15T19:57:09.814Z,101308.69
2023-05-15T19:59:36.693Z,101313.22
2023-05-15T20:02:09.013Z,101310.34
2023-05-15T20:04:36.819Z,101310.69
2023-05-15T20:07:04.277Z,101305.75
2023-05-15T20:09:31.133Z,101318.09
2023-05-15T20:11:58.148Z,101323.44
2023-05-15T20:14:25.174Z,101309.44
2023-05-15T20:16:52.058Z,101328.00
2023-05-15T20:19:21.921Z,101328.00
2023-05-15T20:21:49.147Z,101329.06
2023-05-15T20:24:17.484Z,101332.59
2023-05-15T20:26:45.081Z,101338.38
2023-05-15T20:29:12.005Z,101340.66
2023-05-15T20:31:40.343Z,101340.47
2023-05-15T20:34:08.164Z,101336.78
2023-05-15T20:36:38.684Z,101334.34
2023-05-15T20:39:07.236Z,101346.25
2023-05-15T20:41:34.820Z,101338.69
2023-05-15T20:44:02.023Z,101348.75
2023-05-15T20:46:30.116Z,101343.63
2023-05-15T20:48:57.844Z,101345.47
2023-05-15T20:51:25.019Z,101337.47
2023-05-15T20:53:53.237Z,101333.16
2023-05-15T20:56:21.054Z,101339.31
2023-05-15T20:58:48.078Z,101335.81
2023-05-15T21:01:15.847Z,101345.88
2023-05-15T21:03:43.434Z,101344.69
2023-05-15T21:06:10.654Z,101338.72
2023-05-15T21:08:37.656Z,101338.13
2023-05-15T21:11:05.908Z,101352.47
2023-05-15T21:13:32.858Z,101347.13
2023-05-15T21:15:59.788Z,101357.19
2023-05-15T21:18:26.706Z,101352.88
2023-05-15T21:20:53.640Z,101357.38
2023-05-15T21:23:21.194Z,101359.25
2023-05-15T21:25:48.354Z,101357.00
2023-05-15T21:28:16.660Z,101371.34
2023-05-15T21:30:43.617Z,101362.31
2023-05-15T21:33:10.744Z,101362.31
2023-05-15T21:35:38.153Z,101374.59
2023-05-15T21:38:05.328Z,101372.34
2023-05-15T21:40:32.275Z,101368.22
2023-05-15T21:42:59.207Z,101367.84
2023-05-15T21:45:27.461Z,101373.78
2023-05-15T21:47:54.355Z,101370.50
2023-05-15T21:50:21.292Z,101378.50
2023-05-15T21:52:50.729Z,101379.72
2023-05-15T21:55:25.325Z,101377.88
2023-05-15T21:58:10.186Z,101392.03
2023-05-15T22:00:39.706Z,101384.03
2023-05-15T22:03:07.445Z,101375.44
2023-05-15T22:05:34.401Z,101372.13
2023-05-15T22:08:01.393Z,101369.47
2023-05-15T22:10:28.466Z,101375.63
2023-05-15T22:12:55.480Z,101371.72
2023-05-15T22:15:22.649Z,101367.84
2023-05-15T22:17:50.960Z,101366.84
2023-05-15T22:20:18.876Z,101370.94
2023-05-15T22:22:45.966Z,101366.19
2023-05-15T22:25:12.928Z,101369.28
2023-05-15T22:27:40.958Z,101370.91
2023-05-15T22:30:09.158Z,101363.53
2023-05-15T22:32:36.231Z,101370.53
2023-05-15T22:35:05.557Z,101367.47
2023-05-15T22:37:32.436Z,101378.94
2023-05-15T22:39:59.806Z,101386.13
2023-05-15T22:42:27.991Z,101380.78
2023-05-15T22:44:57.873Z,101377.09
2023-05-15T22:47:27.952Z,101378.72
2023-05-15T22:49:54.897Z,101381.19
2023-05-15T22:52:23.148Z,101379.94
2023-05-15T22:54:50.045Z,101373.81
2023-05-15T22:57:16.939Z,101375.66
2023-05-15T22:59:44.610Z,101385.28
2023-05-15T23:02:11.473Z,101382.81
2023-05-15T23:04:38.348Z,101383.88
2023-05-15T23:07:05.336Z,101394.31
2023-05-15T23:09:33.555Z,101398.81
2023-05-15T23:12:00.620Z,101392.47
2023-05-15T23:14:27.598Z,101394.75
2023-05-15T23:16:54.466Z,101397.19
2023-05-15T23:19:21.431Z,101391.84
2023-05-15T23:21:48.338Z,101390.25
2023-05-15T23:24:15.995Z,101393.91
2023-05-15T23:26:44.180Z,101383.25
2023-05-15T23:29:11.172Z,101374.66
2023-05-15T23:31:38.742Z,101376.72
2023-05-15T23:34:06.834Z,101376.91
2023-05-15T23:36:33.788Z,101370.19
2023-05-15T23:39:00.707Z,101371.41
2023-05-15T23:41:27.601Z,101375.09
2023-05-15T23:43:55.874Z,101373.66
2023-05-15T23:46:22.768Z,101377.97
2023-05-15T23:48:49.622Z,101384.91
2023-05-15T23:51:16.495Z,101388.19
2023-05-15T23:53:43.436Z,101382.84
2023-05-15T23:56:10.296Z,101389.84
2023-05-15T23:58:37.175Z,101384.09
